createdAt,value
2018-04-11T00:00:05.913Z,62.70
2018-04-11T00:02:33.445Z,62.70
2018-04-11T00:05:01.010Z,62.90
2018-04-11T00:07:28.556Z,62.80
2018-04-11T00:09:56.119Z,63.00
2018-04-11T00:12:23.714Z,63.00
2018-04-11T00:14:51.285Z,63.00
2018-04-11T00:17:19.134Z,63.10
2018-04-11T00:19:46.708Z,63.10
2018-04-11T00:22:14.259Z,63.20
2018-04-11T00:24:41.818Z,63.10
2018-04-11T00:27:09.349Z,63.30
2018-04-11T00:29:36.931Z,63.30
2018-04-11T00:32:04.472Z,63.10
2018-04-11T00:34:32.038Z,63.10
2018-04-11T00:36:59.569Z,63.40
2018-04-11T00:39:27.116Z,63.40
2018-04-11T00:41:54.648Z,63.30
2018-04-11T00:44:22.982Z,63.60
2018-04-11T00:46:50.527Z,63.60
2018-04-11T00:49:18.092Z,63.70
2018-04-11T00:51:45.632Z,63.80
2018-04-11T00:54:13.155Z,64.00
2018-04-11T00:56:41.651Z,64.60
2018-04-11T00:59:09.960Z,63.90
2018-04-11T01:01:37.514Z,63.90
2018-04-11T01:04:06.847Z,63.90
2018-04-11T01:06:34.411Z,63.90
2018-04-11T01:09:01.964Z,63.80
2018-04-11T01:11:29.527Z,63.80
2018-04-11T01:13:57.074Z,63.80
2018-04-11T01:16:24.635Z,63.70
2018-04-11T01:18:52.159Z,63.70
2018-04-11T01:21:19.723Z,63.80
2018-04-11T01:23:47.275Z,64.00
2018-04-11T01:26:14.846Z,64.20
2018-04-11T01:28:42.383Z,64.40
2018-04-11T01:31:09.939Z,64.30
2018-04-11T01:33:38.419Z,64.60
2018-04-11T01:36:06.737Z,64.40
2018-04-11T01:38:34.289Z,64.20
2018-04-11T01:41:01.857Z,64.90
2018-04-11T01:43:29.409Z,65.20
2018-04-11T01:45:56.983Z,65.30
2018-04-11T01:48:24.531Z,65.80
2018-04-11T01:50:52.071Z,65.30
2018-04-11T01:53:19.637Z,64.80
2018-04-11T01:55:47.203Z,65.50
2018-04-11T01:58:16.572Z,65.60
2018-04-11T02:00:44.107Z,65.60
2018-04-11T02:03:11.652Z,65.90
2018-04-11T02:05:39.206Z,65.50
2018-04-11T02:08:06.759Z,65.90
2018-04-11T02:10:34.293Z,65.90
2018-04-11T02:13:01.839Z,66.00
2018-04-11T02:15:30.136Z,66.00
2018-04-11T02:17:57.691Z,65.90
2018-04-11T02:20:25.216Z,66.40
2018-04-11T02:22:53.539Z,66.70
2018-04-11T02:25:21.119Z,66.10
2018-04-11T02:27:48.684Z,65.80
2018-04-11T02:30:16.222Z,66.10
2018-04-11T02:32:43.804Z,66.20
2018-04-11T02:35:11.344Z,65.90
2018-04-11T02:37:38.924Z,66.40
2018-04-11T02:40:06.474Z,66.40
2018-04-11T02:42:34.091Z,66.40
2018-04-11T02:45:01.623Z,66.70
2018-04-11T02:47:29.180Z,66.90
2018-04-11T02:49:56.735Z,66.90
2018-04-11T02:52:25.109Z,66.50
2018-04-11T02:54:52.650Z,66.50
2018-04-11T02:57:20.230Z,66.70
2018-04-11T02:59:49.266Z,67.40
2018-04-11T03:02:16.838Z,67.40
2018-04-11T03:04:44.371Z,67.50
2018-04-11T03:07:12.948Z,67.30
2018-04-11T03:09:40.456Z,67.20
2018-04-11T03:12:08.037Z,66.70
2018-04-11T03:14:35.582Z,67.20
2018-04-11T03:17:03.203Z,67.40
2018-04-11T03:19:30.753Z,66.80
2018-04-11T03:21:59.089Z,67.90
2018-04-11T03:24:26.620Z,67.20
2018-04-11T03:26:54.953Z,67.20
2018-04-11T03:29:23.248Z,67.30
2018-04-11T03:31:50.824Z,67.20
2018-04-11T03:34:18.379Z,67.10
2018-04-11T03:36:45.956Z,67.80
2018-04-11T03:39:13.503Z,67.40
2018-04-11T03:41:41.070Z,67.70
2018-04-11T03:44:08.611Z,67.70
2018-04-11T03:46:36.196Z,67.30
2018-04-11T03:49:03.868Z,67.30
2018-04-11T03:51:31.440Z,67.90
2018-04-11T03:53:58.975Z,67.60
2018-04-11T03:56:26.552Z,67.20
2018-04-11T03:58:54.300Z,66.20
2018-04-11T04:01:21.868Z,67.10
2018-04-11T04:03:49.408Z,67.70
2018-04-11T04:06:17.396Z,67.10
2018-04-11T04:08:44.953Z,67.10
2018-04-11T04:11:12.488Z,67.10
2018-04-11T04:13:51.971Z,68.10
2018-04-11T04:16:31.918Z,67.60
2018-04-11T04:19:11.571Z,67.30
2018-04-11T04:21:39.510Z,67.70
2018-04-11T04:24:09.708Z,67.90
2018-04-11T04:26:37.243Z,67.90
2018-04-11T04:29:04.819Z,67.80
2018-04-11T04:31:32.348Z,68.60
2018-04-11T04:34:00.124Z,68.80
2018-04-11T04:36:28.436Z,68.80
2018-04-11T04:38:56.016Z,68.70
2018-04-11T04:41:23.573Z,68.80
2018-04-11T04:43:51.262Z,68.70
2018-04-11T04:46:19.555Z,68.80
2018-04-11T04:48:47.137Z,68.80
2018-04-11T04:51:14.927Z,68.80
2018-04-11T04:53:42.479Z,69.20
2018-04-11T04:56:10.024Z,68.70
2018-04-11T04:58:37.587Z,68.90
2018-04-11T05:01:05.119Z,69.20
2018-04-11T05:03:32.689Z,69.00
2018-04-11T05:06:00.999Z,69.40
2018-04-11T05:08:28.576Z,69.30
2018-04-11T05:10:56.114Z,69.40
2018-04-11T05:13:24.008Z,69.20
2018-04-11T05:15:51.743Z,69.10
2018-04-11T05:18:19.532Z,69.60
2018-04-11T05:20:47.076Z,69.40
2018-04-11T05:23:14.643Z,69.50
2018-04-11T05:25:42.204Z,69.40
2018-04-11T05:28:09.801Z,69.40
2018-04-11T05:30:38.103Z,69.20
2018-04-11T05:33:06.219Z,69.20
2018-04-11T05:35:33.788Z,69.20
2018-04-11T05:38:02.098Z,69.40
2018-04-11T05:40:29.699Z,68.60
2018-04-11T05:42:57.279Z,69.20
2018-04-11T05:45:24.916Z,69.20
2018-04-11T05:47:52.478Z,69.30
2018-04-11T05:50:20.308Z,68.60
2018-04-11T05:52:48.624Z,69.60
2018-04-11T05:55:16.243Z,68.90
2018-04-11T05:57:43.809Z,69.00
2018-04-11T06:00:11.368Z,68.90
2018-04-11T06:02:39.687Z,69.10
2018-04-11T06:05:07.539Z,69.00
2018-04-11T06:07:35.103Z,68.80
2018-04-11T06:10:02.659Z,68.70
2018-04-11T06:12:30.247Z,68.30
2018-04-11T06:14:57.816Z,68.30
2018-04-11T06:17:25.380Z,68.40
2018-04-11T06:19:52.929Z,68.50
2018-04-11T06:22:20.516Z,68.50
2018-04-11T06:24:48.825Z,68.50
2018-04-11T06:27:16.395Z,68.40
2018-04-11T06:29:43.934Z,68.20
2018-04-11T06:32:12.352Z,67.30
2018-04-11T06:34:39.889Z,67.30
2018-04-11T06:37:07.455Z,67.30
2018-04-11T06:39:35.023Z,67.30
2018-04-11T06:42:02.606Z,66.80
2018-04-11T06:44:30.145Z,66.80
2018-04-11T06:46:57.711Z,66.70
2018-04-11T06:49:25.314Z,66.50
2018-04-11T06:51:52.845Z,66.40
2018-04-11T06:54:20.545Z,66.60
2018-04-11T06:56:48.956Z,66.30
2018-04-11T06:59:16.542Z,66.30
2018-04-11T07:01:44.347Z,66.30
2018-04-11T07:04:12.673Z,66.30
2018-04-11T07:06:40.259Z,66.20
2018-04-11T07:09:07.795Z,65.90
2018-04-11T07:11:35.452Z,66.20
2018-04-11T07:14:03.033Z,66.00
2018-04-11T07:16:30.649Z,65.90
2018-04-11T07:18:58.171Z,66.40
2018-04-11T07:21:25.704Z,66.40
2018-04-11T07:23:53.354Z,65.80
2018-04-11T07:26:20.890Z,65.60
2018-04-11T07:28:48.477Z,65.60
2018-04-11T07:31:16.027Z,65.60
2018-04-11T07:33:43.561Z,65.60
2018-04-11T07:36:11.140Z,65.80
2018-04-11T07:38:38.693Z,65.10
2018-04-11T07:41:06.277Z,65.40
2018-04-11T07:43:33.820Z,65.00
2018-04-11T07:46:01.414Z,65.30
2018-04-11T07:48:28.953Z,65.40
2018-04-11T07:50:56.561Z,65.40
2018-04-11T07:53:24.881Z,65.40
2018-04-11T07:55:52.440Z,65.30
2018-04-11T07:58:20.043Z,65.30
2018-04-11T08:00:47.899Z,65.50
2018-04-11T08:03:15.712Z,65.60
2018-04-11T08:05:43.229Z,65.00
2018-04-11T08:08:10.777Z,65.10
2018-04-11T08:10:38.344Z,65.00
2018-04-11T08:13:05.915Z,64.70
2018-04-11T08:15:34.248Z,64.50
2018-04-11T08:18:01.833Z,64.50
2018-04-11T08:20:29.384Z,64.50
2018-04-11T08:22:56.951Z,64.20
2018-04-11T08:25:24.532Z,64.00
2018-04-11T08:27:52.099Z,64.10
2018-04-11T08:30:20.414Z,63.90
2018-04-11T08:32:47.989Z,63.80
2018-04-11T08:35:15.525Z,63.60
2018-04-11T08:37:43.071Z,63.50
2018-04-11T08:40:10.583Z,63.10
2018-04-11T08:42:38.151Z,62.90
2018-04-11T08:45:05.727Z,63.20
2018-04-11T08:47:33.368Z,63.20
2018-04-11T08:50:00.911Z,63.20
2018-04-11T08:52:28.542Z,63.20
2018-04-11T08:54:56.076Z,63.30
2018-04-11T08:57:23.663Z,63.00
2018-04-11T08:59:51.236Z,63.10
2018-04-11T09:02:18.774Z,62.60
2018-04-11T09:04:46.337Z,63.10
2018-04-11T09:07:13.870Z,62.50
2018-04-11T09:09:42.228Z,62.90
2018-04-11T09:12:09.889Z,62.90
2018-04-11T09:14:37.473Z,62.30
2018-04-11T09:17:05.763Z,62.00
2018-04-11T09:19:33.393Z,62.00
2018-04-11T09:22:00.987Z,61.50
2018-04-11T09:24:28.739Z,61.30
2018-04-11T09:26:57.046Z,60.90
2018-04-11T09:29:24.624Z,60.90
2018-04-11T09:31:52.259Z,60.60
2018-04-11T09:34:19.773Z,60.70
2018-04-11T09:36:47.318Z,61.00
2018-04-11T09:39:14.884Z,61.10
2018-04-11T09:41:42.420Z,61.40
2018-04-11T09:44:10.144Z,61.60
2018-04-11T09:46:37.710Z,62.10
2018-04-11T09:49:05.379Z,62.10
2018-04-11T09:51:32.956Z,62.60
2018-04-11T09:54:00.502Z,63.00
2018-04-11T09:56:28.093Z,62.60
2018-04-11T09:58:55.651Z,63.00
2018-04-11T10:01:23.221Z,63.00
2018-04-11T10:03:50.914Z,63.00
2018-04-11T10:06:19.348Z,63.20
2018-04-11T10:08:46.923Z,63.00
2018-04-11T10:11:14.720Z,63.00
2018-04-11T10:13:43.126Z,63.20
2018-04-11T10:16:10.711Z,63.10
2018-04-11T10:18:38.453Z,63.00
2018-04-11T10:21:06.039Z,63.00
2018-04-11T10:23:33.611Z,62.30
2018-04-11T10:26:01.184Z,62.60
2018-04-11T10:28:28.750Z,62.40
2018-04-11T10:30:57.082Z,62.60
2018-04-11T10:33:24.643Z,62.10
2018-04-11T10:35:52.501Z,61.30
2018-04-11T10:38:20.048Z,61.10
2018-04-11T10:40:47.593Z,59.70
2018-04-11T10:43:15.277Z,59.40
2018-04-11T10:45:42.829Z,59.60
2018-04-11T10:48:10.398Z,59.60
2018-04-11T10:50:37.938Z,59.50
2018-04-11T10:53:05.528Z,59.40
2018-04-11T10:55:33.074Z,59.30
2018-04-11T10:58:00.672Z,59.10
2018-04-11T11:00:28.203Z,59.00
2018-04-11T11:02:55.770Z,59.00
2018-04-11T11:05:23.319Z,59.00
2018-04-11T11:07:50.954Z,59.40
2018-04-11T11:10:18.496Z,59.00
2018-04-11T11:12:46.060Z,59.60
2018-04-11T11:15:14.359Z,59.20
2018-04-11T11:17:41.932Z,59.20
2018-04-11T11:20:09.468Z,59.30
2018-04-11T11:22:37.041Z,60.20
2018-04-11T11:25:04.585Z,59.40
2018-04-11T11:27:33.192Z,59.30
2018-04-11T11:30:00.765Z,59.30
2018-04-11T11:32:28.299Z,59.30
2018-04-11T11:34:55.861Z,59.40
2018-04-11T11:37:23.441Z,59.40
2018-04-11T11:39:51.035Z,58.00
2018-04-11T11:42:19.349Z,58.90
2018-04-11T11:44:46.925Z,59.00
2018-04-11T11:47:14.466Z,58.90
2018-04-11T11:49:42.029Z,58.70
2018-04-11T11:52:09.584Z,58.00
2018-04-11T11:54:37.883Z,58.20
2018-04-11T11:57:05.429Z,58.20
2018-04-11T11:59:33.010Z,57.60
2018-04-11T12:02:00.568Z,56.70
2018-04-11T12:04:28.139Z,56.50
2018-04-11T12:06:55.758Z,56.30
2018-04-11T12:09:23.304Z,56.00
2018-04-11T12:11:51.631Z,55.60
2018-04-11T12:14:19.200Z,55.60
2018-04-11T12:16:46.736Z,55.40
2018-04-11T12:19:14.296Z,55.60
2018-04-11T12:21:41.832Z,55.00
2018-04-11T12:24:10.300Z,54.80
2018-04-11T12:26:38.598Z,53.80
2018-04-11T12:29:06.141Z,53.70
2018-04-11T12:31:35.080Z,54.00
2018-04-11T12:34:02.646Z,54.80
2018-04-11T12:36:30.217Z,54.70
2018-04-11T12:38:57.771Z,54.70
2018-04-11T12:41:25.363Z,54.40
2018-04-11T12:43:53.891Z,54.80
2018-04-11T12:46:21.433Z,54.60
2018-04-11T12:48:49.032Z,54.00
2018-04-11T12:51:16.644Z,54.20
2018-04-11T12:53:44.232Z,54.10
2018-04-11T12:56:11.760Z,54.00
2018-04-11T12:58:42.123Z,54.50
2018-04-11T13:01:09.679Z,54.40
2018-04-11T13:03:37.248Z,53.70
2018-04-11T13:06:04.798Z,53.20
2018-04-11T13:08:32.452Z,53.20
2018-04-11T13:11:00.146Z,53.20
2018-04-11T13:13:27.715Z,53.70
2018-04-11T13:15:55.256Z,53.90
2018-04-11T13:18:23.102Z,54.40
2018-04-11T13:20:50.617Z,54.50
2018-04-11T13:23:18.188Z,53.80
2018-04-11T13:25:46.508Z,53.60
2018-04-11T13:28:14.092Z,53.50
2018-04-11T13:30:41.631Z,51.30
2018-04-11T13:33:09.271Z,52.40
2018-04-11T13:35:36.823Z,51.20
2018-04-11T13:38:04.391Z,49.60
2018-04-11T13:40:31.935Z,51.10
2018-04-11T13:42:59.521Z,49.70
2018-04-11T13:45:27.062Z,49.60
2018-04-11T13:47:54.633Z,50.80
2018-04-11T13:50:22.181Z,50.90
2018-04-11T13:52:50.477Z,52.00
2018-04-11T13:55:18.031Z,52.10
2018-04-11T13:57:45.798Z,52.00
2018-04-11T14:00:13.328Z,52.40
2018-04-11T14:02:40.892Z,52.80
2018-04-11T14:05:08.425Z,53.10
2018-04-11T14:07:36.764Z,53.50
2018-04-11T14:10:04.328Z,53.50
2018-04-11T14:12:31.869Z,53.00
2018-04-11T14:14:59.435Z,52.40
2018-04-11T14:17:26.981Z,51.80
2018-04-11T14:19:54.559Z,51.90
2018-04-11T14:22:22.109Z,51.50
2018-04-11T14:24:49.686Z,49.60
2018-04-11T14:27:17.228Z,49.90
2018-04-11T14:29:44.808Z,48.90
2018-04-11T14:32:12.509Z,48.00
2018-04-11T14:34:40.852Z,48.40
2018-04-11T14:37:08.405Z,48.40
2018-04-11T14:39:36.113Z,49.20
2018-04-11T14:42:04.410Z,47.10
2018-04-11T14:44:32.182Z,47.10
2018-04-11T14:47:00.467Z,47.00
2018-04-11T14:49:28.159Z,47.40
2018-04-11T14:51:55.696Z,47.40
2018-04-11T14:54:23.274Z,46.30
2018-04-11T14:56:50.827Z,45.70
2018-04-11T14:59:18.400Z,45.60
2018-04-11T15:01:45.976Z,45.40
2018-04-11T15:04:13.540Z,46.20
2018-04-11T15:06:41.852Z,47.50
2018-04-11T15:09:09.424Z,47.50
2018-04-11T15:11:36.963Z,48.60
2018-04-11T15:14:05.257Z,48.70
2018-04-11T15:16:32.821Z,48.60
2018-04-11T15:19:00.411Z,48.60
2018-04-11T15:21:27.989Z,48.40
2018-04-11T15:23:55.765Z,48.30
2018-04-11T15:26:23.379Z,48.20
2018-04-11T15:28:50.928Z,47.80
2018-04-11T15:31:18.484Z,47.70
2018-04-11T15:33:46.087Z,49.60
2018-04-11T15:36:13.665Z,49.30
2018-04-11T15:38:41.208Z,49.30
2018-04-11T15:41:08.797Z,49.60
2018-04-11T15:43:36.339Z,49.60
2018-04-11T15:49:05.290Z,50.80
2018-04-11T15:51:32.868Z,50.80
2018-04-11T15:54:00.432Z,50.90
2018-04-11T15:56:28.128Z,51.00
2018-04-11T15:58:55.957Z,51.50
2018-04-11T16:01:23.711Z,51.90
2018-04-11T16:03:51.396Z,52.50
2018-04-11T16:06:19.766Z,52.50
2018-04-11T16:08:47.302Z,52.40
2018-04-11T16:11:14.876Z,52.20
2018-04-11T16:13:42.440Z,52.50
2018-04-11T16:16:10.024Z,52.80
2018-04-11T16:18:37.819Z,53.00
2018-04-11T16:21:06.184Z,53.60
2018-04-11T16:23:33.751Z,53.40
2018-04-11T16:26:02.100Z,53.90
2018-04-11T16:28:29.638Z,53.80
2018-04-11T16:30:57.241Z,54.20
2018-04-11T16:33:24.791Z,54.40
2018-04-11T16:35:52.359Z,54.40
2018-04-11T16:38:19.921Z,54.40
2018-04-11T16:40:48.275Z,54.70
2018-04-11T16:43:15.834Z,54.60
2018-04-11T16:45:45.187Z,54.90
2018-04-11T16:48:12.829Z,55.00
2018-04-11T16:50:41.343Z,55.20
2018-04-11T16:53:08.908Z,55.00
2018-04-11T16:55:36.490Z,55.30
2018-04-11T16:58:04.398Z,55.50
2018-04-11T17:00:31.978Z,55.70
2018-04-11T17:02:59.574Z,56.00
2018-04-11T17:05:27.149Z,56.30
2018-04-11T17:07:54.759Z,56.60
2018-04-11T17:10:22.346Z,56.70
2018-04-11T17:12:50.729Z,56.90
2018-04-11T17:15:18.336Z,57.50
2018-04-11T17:17:47.021Z,57.70
2018-04-11T17:20:15.440Z,57.70
2018-04-11T17:22:54.900Z,57.60
2018-04-11T17:25:34.211Z,57.60
2018-04-11T17:28:27.319Z,57.50
2018-04-11T17:33:51.766Z,57.20
2018-04-11T17:36:19.336Z,57.30
2018-04-11T17:38:46.891Z,57.20
2018-04-11T17:41:14.535Z,57.80
2018-04-11T17:43:42.114Z,58.20
2018-04-11T17:46:09.669Z,58.30
2018-04-11T17:48:37.257Z,58.20
2018-04-11T17:51:04.805Z,57.90
2018-04-11T17:53:32.429Z,58.00
2018-04-11T17:56:00.007Z,57.80
2018-04-11T17:58:27.620Z,57.90
2018-04-11T18:00:55.175Z,58.20
2018-04-11T18:03:22.777Z,58.50
2018-04-11T18:05:50.324Z,59.20
2018-04-11T18:08:17.978Z,58.50
2018-04-11T18:10:45.515Z,58.60
2018-04-11T18:13:13.177Z,58.60
2018-04-11T18:15:40.892Z,58.80
2018-04-11T18:18:08.724Z,58.80
2018-04-11T18:20:36.290Z,58.80
2018-04-11T18:23:04.060Z,59.10
2018-04-11T18:25:32.374Z,59.30
2018-04-11T18:28:00.112Z,59.20
2018-04-11T18:30:27.697Z,59.30
2018-04-11T18:32:55.429Z,59.30
2018-04-11T18:35:23.006Z,59.40
2018-04-11T18:37:50.559Z,59.60
2018-04-11T18:40:18.153Z,59.60
2018-04-11T18:42:45.772Z,59.80
2018-04-11T18:45:14.125Z,59.80
2018-04-11T18:47:42.468Z,59.80
2018-04-11T18:50:10.055Z,59.80
2018-04-11T18:52:38.387Z,60.20
2018-04-11T18:55:06.010Z,60.20
2018-04-11T18:57:33.881Z,60.20
2018-04-11T19:00:01.473Z,60.30
2018-04-11T19:02:29.083Z,60.50
2018-04-11T19:04:56.677Z,60.50
2018-04-11T19:07:24.303Z,60.70
2018-04-11T19:09:51.892Z,61.10
2018-04-11T19:12:20.264Z,61.10
2018-04-11T19:14:47.870Z,61.00
2018-04-11T19:17:15.473Z,61.40
2018-04-11T19:19:43.143Z,61.50
2018-04-11T19:22:10.956Z,61.40
2018-04-11T19:24:38.716Z,61.40
2018-04-11T19:27:06.321Z,61.40
2018-04-11T19:29:33.851Z,61.40
2018-04-11T19:32:01.462Z,61.30
2018-04-11T19:34:29.778Z,61.30
2018-04-11T19:36:57.341Z,61.30
2018-04-11T19:39:25.057Z,61.30
2018-04-11T19:41:53.486Z,61.40
2018-04-11T19:44:21.150Z,61.30
2018-04-11T19:46:48.707Z,61.40
2018-04-11T19:49:16.463Z,61.20
2018-04-11T19:51:44.015Z,61.20
2018-04-11T19:54:11.609Z,61.50
2018-04-11T19:56:39.357Z,61.50
2018-04-11T19:59:07.180Z,61.20
2018-04-11T20:01:42.293Z,61.80
2018-04-11T20:04:09.917Z,61.80
2018-04-11T20:06:37.536Z,61.90
2018-04-11T20:09:05.929Z,62.60
2018-04-11T20:11:33.608Z,62.60
2018-04-11T20:14:01.219Z,62.70
2018-04-11T20:16:28.796Z,63.30
2018-04-11T20:18:57.216Z,63.70
2018-04-11T20:21:24.832Z,63.60
2018-04-11T20:23:52.452Z,64.00
2018-04-11T20:26:20.004Z,64.30
2018-04-11T20:28:47.609Z,64.40
2018-04-11T20:31:15.164Z,64.30
2018-04-11T20:33:43.639Z,64.10
2018-04-11T20:36:11.209Z,64.60
2018-04-11T20:38:38.788Z,65.00
2018-04-11T20:41:07.096Z,65.10
2018-04-11T20:43:34.787Z,65.00
2018-04-11T20:46:02.341Z,65.40
2018-04-11T20:48:29.936Z,65.50
2018-04-11T20:50:57.492Z,65.50
2018-04-11T20:53:25.832Z,65.40
2018-04-11T20:55:53.385Z,65.40
2018-04-11T20:58:20.967Z,65.40
2018-04-11T21:00:48.808Z,65.40
2018-04-11T21:03:16.419Z,65.40
2018-04-11T21:05:44.743Z,66.30
2018-04-11T21:08:12.460Z,66.20
2018-04-11T21:10:40.012Z,66.60
2018-04-11T21:13:08.369Z,66.90
2018-04-11T21:15:35.932Z,66.80
2018-04-11T21:18:03.652Z,67.60
2018-04-11T21:20:31.213Z,68.20
2018-04-11T21:22:58.799Z,67.80
2018-04-11T21:25:26.512Z,67.90
2018-04-11T21:27:54.106Z,68.20
2018-04-11T21:30:21.695Z,68.60
2018-04-11T21:32:49.264Z,68.80
2018-04-11T21:35:16.817Z,68.80
2018-04-11T21:37:44.837Z,68.90
2018-04-11T21:40:12.411Z,69.50
2018-04-11T21:42:40.016Z,69.20
2018-04-11T21:45:07.533Z,69.40
2018-04-11T21:47:35.103Z,69.40
2018-04-11T21:50:02.673Z,69.40
2018-04-11T21:52:30.250Z,69.40
2018-04-11T21:54:57.802Z,69.40
2018-04-11T21:57:25.384Z,69.40
2018-04-11T21:59:53.904Z,69.30
2018-04-11T22:02:21.517Z,69.30
2018-04-11T22:04:49.059Z,69.60
2018-04-11T22:07:16.813Z,69.20
2018-04-11T22:09:44.356Z,69.80
2018-04-11T22:12:11.972Z,70.00
2018-04-11T22:14:40.303Z,70.30
2018-04-11T22:17:07.849Z,70.20
2018-04-11T22:19:35.512Z,70.60
2018-04-11T22:22:03.044Z,71.20
2018-04-11T22:24:31.377Z,71.30
2018-04-11T22:26:59.168Z,71.20
2018-04-11T22:29:27.507Z,71.90
2018-04-11T22:31:55.043Z,71.30
2018-04-11T22:34:22.630Z,71.30
2018-04-11T22:36:50.183Z,71.70
2018-04-11T22:39:17.745Z,71.70
2018-04-11T22:41:45.293Z,71.80
2018-04-11T22:44:13.110Z,71.80
2018-04-11T22:46:40.889Z,71.90
2018-04-11T22:49:08.475Z,72.00
2018-04-11T22:51:36.012Z,72.30
2018-04-11T22:54:04.683Z,72.50
2018-04-11T22:56:32.992Z,72.60
2018-04-11T22:59:00.566Z,72.60
2018-04-11T23:01:28.279Z,72.70
2018-04-11T23:03:56.631Z,73.80
2018-04-11T23:06:24.207Z,73.20
2018-04-11T23:08:51.799Z,73.30
2018-04-11T23:11:19.340Z,73.20
2018-04-11T23:13:47.689Z,73.20
2018-04-11T23:16:15.236Z,73.20
2018-04-11T23:18:43.073Z,73.20
2018-04-11T23:21:10.612Z,73.10
2018-04-11T23:23:38.928Z,73.10
2018-04-11T23:26:06.507Z,73.10
2018-04-11T23:28:34.047Z,73.10
2018-04-11T23:31:01.617Z,73.00
2018-04-11T23:33:29.231Z,73.00
2018-04-11T23:35:56.997Z,73.00
2018-04-11T23:38:24.555Z,73.50
2018-04-11T23:40:52.119Z,72.90
2018-04-11T23:43:20.427Z,72.90
2018-04-11T23:45:47.996Z,72.90
2018-04-11T23:48:15.540Z,72.90
2018-04-11T23:50:43.148Z,73.80
2018-04-11T23:53:10.688Z,73.90
2018-04-11T23:55:38.263Z,74.20
2018-04-11T23:58:05.775Z,74.10
